createdAt,value
2023-03-18T00:01:24.203Z,4.93
2023-03-18T00:03:52.494Z,4.82
2023-03-18T00:06:22.075Z,5.15
2023-03-18T00:08:50.768Z,4.60
2023-03-18T00:11:21.371Z,6.28
2023-03-18T00:13:50.150Z,4.30
2023-03-18T00:16:18.222Z,3.97
2023-03-18T00:18:46.129Z,5.22
2023-03-18T00:21:14.145Z,4.47
2023-03-18T00:23:43.816Z,4.53
2023-03-18T00:26:11.982Z,5.30
2023-03-18T00:28:42.244Z,5.70
2023-03-18T00:31:13.100Z,4.00
2023-03-18T00:33:45.665Z,4.60
2023-03-18T00:36:16.631Z,4.35
2023-03-18T00:38:50.983Z,5.95
2023-03-18T00:41:18.916Z,4.50
2023-03-18T00:43:52.419Z,5.35
2023-03-18T00:46:23.448Z,4.88
2023-03-18T00:48:52.977Z,4.00
2023-03-18T00:51:22.708Z,4.28
2023-03-18T00:53:54.124Z,4.40
2023-03-18T00:56:25.599Z,5.55
2023-03-18T00:58:54.655Z,4.57
2023-03-18T01:01:24.003Z,4.78
2023-03-18T01:03:52.515Z,5.80
2023-03-18T01:06:23.882Z,4.78
2023-03-18T01:08:53.805Z,5.25
2023-03-18T01:11:22.914Z,4.13
2023-03-18T01:13:51.110Z,5.25
2023-03-18T01:16:19.272Z,4.93
2023-03-18T01:18:47.435Z,5.03
2023-03-18T01:21:17.052Z,5.40
2023-03-18T01:23:50.582Z,5.03
2023-03-18T01:26:20.487Z,5.43
2023-03-18T01:28:48.520Z,4.03
2023-03-18T01:31:17.035Z,5.25
2023-03-18T01:33:47.969Z,5.35
2023-03-18T01:36:15.846Z,5.30
2023-03-18T01:38:45.649Z,4.22
2023-03-18T01:41:16.752Z,4.03
2023-03-18T01:43:46.028Z,4.63
2023-03-18T01:46:37.377Z,5.20
2023-03-18T01:49:10.266Z,4.95
2023-03-18T01:51:39.460Z,4.57
2023-03-18T01:54:09.153Z,5.22
2023-03-18T01:56:40.032Z,5.00
2023-03-18T01:59:12.197Z,4.90
2023-03-18T02:01:46.672Z,4.40
2023-03-18T02:06:43.882Z,5.35
2023-03-18T02:09:12.999Z,3.95
2023-03-18T02:11:49.942Z,4.88
2023-03-18T02:14:24.216Z,4.13
2023-03-18T02:19:49.074Z,5.63
2023-03-18T02:22:26.576Z,3.88
2023-03-18T02:25:12.822Z,6.50
2023-03-18T02:27:46.280Z,5.22
2023-03-18T02:30:18.909Z,5.75
2023-03-18T02:32:51.920Z,5.13
2023-03-18T02:35:20.856Z,4.93
2023-03-18T02:37:49.961Z,4.22
2023-03-18T02:40:20.937Z,4.63
2023-03-18T02:42:50.545Z,4.50
2023-03-18T02:45:31.753Z,5.20
2023-03-18T02:48:18.420Z,7.05
2023-03-18T02:50:47.671Z,4.53
2023-03-18T02:53:15.672Z,4.90
2023-03-18T02:55:43.997Z,4.75
2023-03-18T02:58:13.327Z,6.57
2023-03-18T03:00:42.435Z,5.95
2023-03-18T03:03:10.473Z,4.80
2023-03-18T03:05:38.783Z,5.22
2023-03-18T03:08:06.938Z,4.78
2023-03-18T03:10:41.424Z,4.72
2023-03-18T03:13:10.006Z,4.70
2023-03-18T03:15:40.954Z,3.50
2023-03-18T03:18:08.944Z,4.22
2023-03-18T03:20:39.023Z,4.90
2023-03-18T03:23:08.604Z,4.68
2023-03-18T03:25:36.865Z,4.82
2023-03-18T03:28:05.369Z,4.80
2023-03-18T03:30:33.421Z,4.95
2023-03-18T03:33:02.995Z,5.93
2023-03-18T03:35:31.094Z,6.30
2023-03-18T03:38:00.215Z,6.88
2023-03-18T03:40:29.135Z,5.90
2023-03-18T03:42:57.071Z,5.90
2023-03-18T03:45:24.939Z,5.03
2023-03-18T03:47:54.829Z,5.15
2023-03-18T03:50:24.425Z,4.80
2023-03-18T03:52:53.018Z,5.00
2023-03-18T03:55:22.864Z,4.63
2023-03-18T03:57:51.605Z,4.22
2023-03-18T04:00:22.742Z,5.80
2023-03-18T04:02:52.550Z,4.43
2023-03-18T04:05:23.481Z,4.15
2023-03-18T04:07:53.751Z,5.13
2023-03-18T04:10:32.026Z,5.30
2023-03-18T04:13:00.168Z,5.88
2023-03-18T04:15:29.011Z,4.75
2023-03-18T04:17:57.222Z,5.78
2023-03-18T04:20:26.296Z,5.90
2023-03-18T04:22:55.887Z,5.18
2023-03-18T04:25:25.202Z,5.50
2023-03-18T04:27:54.133Z,3.78
2023-03-18T04:30:23.446Z,5.88
2023-03-18T04:33:01.935Z,4.90
2023-03-18T04:35:31.308Z,4.72
2023-03-18T04:38:00.680Z,6.47
2023-03-18T04:40:29.341Z,7.28
2023-03-18T04:42:57.572Z,5.68
2023-03-18T04:45:28.124Z,5.03
2023-03-18T04:47:58.701Z,5.90
2023-03-18T04:50:27.914Z,4.70
2023-03-18T04:52:55.880Z,5.93
2023-03-18T04:55:29.418Z,6.43
2023-03-18T04:57:58.692Z,6.88
2023-03-18T05:00:28.727Z,5.45
2023-03-18T05:03:07.395Z,6.22
2023-03-18T05:05:38.460Z,6.22
2023-03-18T05:08:08.568Z,6.03
2023-03-18T05:10:38.397Z,6.43
2023-03-18T05:13:06.314Z,5.20
2023-03-18T05:15:36.644Z,5.95
2023-03-18T05:18:05.649Z,6.53
2023-03-18T05:20:33.913Z,5.75
2023-03-18T05:23:03.013Z,6.05
2023-03-18T05:25:49.589Z,5.93
2023-03-18T05:28:19.423Z,6.00
2023-03-18T05:31:13.220Z,5.03
2023-03-18T05:33:43.085Z,6.18
2023-03-18T05:36:13.752Z,5.43
2023-03-18T05:38:53.496Z,6.22
2023-03-18T05:41:22.907Z,5.50
2023-03-18T05:43:51.001Z,5.35
2023-03-18T05:46:19.082Z,4.63
2023-03-18T05:48:56.583Z,5.68
2023-03-18T05:51:29.176Z,4.80
2023-03-18T05:53:57.723Z,4.32
2023-03-18T05:56:31.362Z,5.93
2023-03-18T05:59:01.985Z,6.18
2023-03-18T06:02:02.038Z,5.10
2023-03-18T06:04:31.122Z,4.85
2023-03-18T06:06:59.096Z,5.90
2023-03-18T06:09:27.560Z,5.00
2023-03-18T06:11:57.222Z,5.00
2023-03-18T06:14:29.197Z,5.82
2023-03-18T06:17:00.500Z,5.32
2023-03-18T06:19:30.652Z,4.68
2023-03-18T06:21:58.766Z,5.70
2023-03-18T06:24:27.059Z,5.38
2023-03-18T06:26:57.912Z,4.93
2023-03-18T06:29:26.655Z,4.95
2023-03-18T06:31:57.906Z,4.70
2023-03-18T06:34:27.523Z,5.68
2023-03-18T06:36:56.922Z,4.10
2023-03-18T06:39:24.921Z,5.18
2023-03-18T06:41:53.057Z,5.38
2023-03-18T06:44:32.314Z,5.50
2023-03-18T06:47:09.090Z,5.82
2023-03-18T06:49:40.874Z,5.78
2023-03-18T06:52:14.756Z,5.85
2023-03-18T06:54:45.939Z,5.85
2023-03-18T06:57:16.477Z,7.97
2023-03-18T06:59:46.861Z,6.90
2023-03-18T07:02:15.397Z,6.05
2023-03-18T07:04:43.597Z,4.97
2023-03-18T07:07:13.114Z,5.82
2023-03-18T07:09:45.904Z,5.88
2023-03-18T07:12:14.915Z,5.55
2023-03-18T07:14:45.523Z,4.35
2023-03-18T07:17:14.533Z,4.70
2023-03-18T07:19:42.841Z,6.25
2023-03-18T07:22:11.370Z,5.20
2023-03-18T07:24:39.411Z,4.47
2023-03-18T07:27:08.271Z,6.00
2023-03-18T07:29:36.112Z,4.97
2023-03-18T07:32:06.032Z,4.40
2023-03-18T07:34:33.914Z,4.85
2023-03-18T07:37:02.383Z,4.15
2023-03-18T07:39:30.294Z,3.90
2023-03-18T07:41:58.119Z,4.00
2023-03-18T07:44:30.482Z,4.40
2023-03-18T07:46:58.678Z,4.93
2023-03-18T07:49:28.047Z,5.45
2023-03-18T07:51:56.077Z,3.50
2023-03-18T07:54:24.888Z,5.55
2023-03-18T07:56:53.451Z,5.00
2023-03-18T07:59:21.616Z,4.60
2023-03-18T08:01:50.208Z,4.93
2023-03-18T08:04:19.260Z,3.70
2023-03-18T08:06:49.355Z,5.07
2023-03-18T08:09:17.160Z,3.60
2023-03-18T08:11:45.111Z,4.68
2023-03-18T08:14:14.050Z,4.40
2023-03-18T08:16:42.533Z,3.83
2023-03-18T08:19:10.550Z,4.63
2023-03-18T08:21:38.484Z,4.47
2023-03-18T08:24:08.319Z,3.33
2023-03-18T08:26:36.941Z,4.93
2023-03-18T08:29:05.345Z,3.65
2023-03-18T08:31:33.583Z,3.78
2023-03-18T08:34:01.446Z,3.78
2023-03-18T08:36:31.309Z,4.43
2023-03-18T08:39:01.761Z,3.45
2023-03-18T08:41:30.942Z,4.13
2023-03-18T08:43:59.037Z,3.63
2023-03-18T08:46:26.969Z,3.95
2023-03-18T08:48:55.283Z,3.88
2023-03-18T08:51:23.555Z,3.80
2023-03-18T08:53:51.748Z,3.60
2023-03-18T08:56:20.161Z,3.65
2023-03-18T08:58:49.762Z,3.42
2023-03-18T09:01:19.744Z,3.65
2023-03-18T09:03:47.763Z,3.13
2023-03-18T09:06:18.318Z,3.22
2023-03-18T09:08:46.198Z,2.63
2023-03-18T09:11:14.123Z,3.42
2023-03-18T09:13:41.985Z,2.75
2023-03-18T09:16:13.595Z,4.90
2023-03-18T09:18:44.304Z,2.97
2023-03-18T09:21:13.973Z,3.13
2023-03-18T09:23:41.793Z,2.72
2023-03-18T09:26:09.697Z,3.20
2023-03-18T09:28:39.980Z,3.85
2023-03-18T09:31:08.106Z,3.97
2023-03-18T09:33:37.774Z,2.97
2023-03-18T09:36:08.541Z,3.70
2023-03-18T09:38:38.227Z,3.70
2023-03-18T09:41:19.765Z,3.40
2023-03-18T09:44:00.676Z,3.22
2023-03-18T09:46:38.266Z,3.30
2023-03-18T09:49:36.894Z,3.25
2023-03-18T09:52:18.272Z,3.03
2023-03-18T09:54:54.910Z,2.90
2023-03-18T09:57:28.726Z,3.00
2023-03-18T10:00:09.336Z,2.70
2023-03-18T10:02:42.319Z,2.97
2023-03-18T10:05:19.309Z,2.60
2023-03-18T10:07:58.455Z,3.03
2023-03-18T10:10:31.539Z,2.05
2023-03-18T10:13:11.525Z,2.60
2023-03-18T10:15:45.564Z,2.65
2023-03-18T10:18:25.240Z,2.88
2023-03-18T10:21:17.254Z,3.33
2023-03-18T10:23:54.798Z,3.13
2023-03-18T10:26:33.456Z,2.72
2023-03-18T10:29:21.257Z,3.92
2023-03-18T10:32:16.463Z,1.85
2023-03-18T10:35:02.778Z,2.97
2023-03-18T10:37:58.303Z,2.30
2023-03-18T10:40:52.766Z,2.17
2023-03-18T10:44:05.743Z,2.53
2023-03-18T10:46:36.706Z,3.15
2023-03-18T10:49:14.050Z,1.98
2023-03-18T10:51:47.509Z,3.35
2023-03-18T10:54:24.729Z,2.22
2023-03-18T10:56:53.300Z,2.17
2023-03-18T10:59:24.478Z,3.30
2023-03-18T11:01:57.061Z,2.70
2023-03-18T11:06:57.705Z,2.42
2023-03-18T11:09:32.885Z,2.83
2023-03-18T11:12:05.928Z,1.88
2023-03-18T11:14:37.277Z,2.92
2023-03-18T11:17:08.113Z,2.97
2023-03-18T11:19:39.814Z,2.90
2023-03-18T11:22:22.357Z,3.73
2023-03-18T11:25:07.180Z,3.40
2023-03-18T11:27:38.929Z,2.80
2023-03-18T11:30:21.458Z,3.07
2023-03-18T11:33:04.070Z,2.58
2023-03-18T11:35:37.529Z,3.53
2023-03-18T11:38:07.422Z,2.78
2023-03-18T11:40:40.368Z,5.05
2023-03-18T11:43:18.705Z,3.45
2023-03-18T11:45:59.186Z,3.45
2023-03-18T11:48:36.833Z,2.13
2023-03-18T11:51:39.580Z,3.90
2023-03-18T11:54:21.478Z,3.47
2023-03-18T11:56:57.323Z,5.90
2023-03-18T11:59:35.616Z,2.97
2023-03-18T12:02:25.347Z,3.03
2023-03-18T12:05:11.052Z,3.30
2023-03-18T12:07:53.177Z,4.18
2023-03-18T12:10:29.695Z,4.10
2023-03-18T12:13:29.785Z,4.78
2023-03-18T12:16:05.506Z,3.63
2023-03-18T12:18:51.546Z,3.83
2023-03-18T12:21:45.734Z,2.97
2023-03-18T12:24:36.647Z,3.85
2023-03-18T12:27:15.086Z,3.13
2023-03-18T12:30:13.175Z,3.45
2023-03-18T12:32:43.451Z,4.38
2023-03-18T12:35:31.400Z,4.15
2023-03-18T12:38:20.010Z,2.90
2023-03-18T12:41:01.747Z,2.05
2023-03-18T12:43:51.033Z,2.97
2023-03-18T12:46:41.985Z,2.70
2023-03-18T12:49:18.134Z,2.92
2023-03-18T12:51:52.152Z,3.80
2023-03-18T12:54:27.395Z,4.25
2023-03-18T12:57:01.234Z,3.00
2023-03-18T12:59:36.415Z,3.97
2023-03-18T13:02:25.160Z,4.13
2023-03-18T13:04:58.112Z,3.22
2023-03-18T13:07:36.341Z,2.33
2023-03-18T13:10:18.457Z,2.50
2023-03-18T13:12:50.224Z,2.95
2023-03-18T13:15:27.117Z,2.95
2023-03-18T13:18:00.554Z,2.35
2023-03-18T13:20:32.213Z,2.47
2023-03-18T13:23:17.356Z,2.43
2023-03-18T13:25:59.734Z,3.28
2023-03-18T13:28:46.202Z,2.88
2023-03-18T13:31:24.830Z,2.30
2023-03-18T13:34:26.218Z,2.90
2023-03-18T13:37:23.735Z,3.55
2023-03-18T13:40:10.042Z,2.30
2023-03-18T13:42:40.135Z,2.35
2023-03-18T13:45:25.003Z,3.65
2023-03-18T13:47:59.577Z,2.05
2023-03-18T13:50:39.675Z,2.80
2023-03-18T13:53:22.115Z,2.90
2023-03-18T13:56:00.599Z,3.20
2023-03-18T13:58:30.536Z,2.88
2023-03-18T14:01:28.400Z,3.38
2023-03-18T14:04:01.253Z,3.25
2023-03-18T14:06:54.300Z,3.25
2023-03-18T14:12:20.890Z,2.03
2023-03-18T14:15:02.571Z,3.03
2023-03-18T14:17:49.418Z,2.03
2023-03-18T14:20:24.511Z,2.78
2023-03-18T14:22:55.820Z,2.83
2023-03-18T14:25:40.964Z,2.05
2023-03-18T14:28:23.340Z,1.88
2023-03-18T14:31:00.793Z,2.65
2023-03-18T14:33:48.806Z,2.65
2023-03-18T14:36:17.284Z,2.67
2023-03-18T14:38:56.677Z,2.47
2023-03-18T14:41:29.349Z,2.53
2023-03-18T14:46:41.464Z,1.75
2023-03-18T14:49:36.031Z,2.42
2023-03-18T14:52:10.572Z,2.38
2023-03-18T14:54:46.198Z,2.30
2023-03-18T14:57:14.471Z,1.92
2023-03-18T14:59:42.863Z,3.42
2023-03-18T15:02:23.988Z,3.17
2023-03-18T15:04:54.961Z,2.25
2023-03-18T15:07:30.336Z,2.58
2023-03-18T15:10:04.484Z,2.30
2023-03-18T15:12:33.456Z,3.00
2023-03-18T15:15:01.656Z,3.38
2023-03-18T15:17:29.722Z,2.15
2023-03-18T15:20:00.145Z,2.63
2023-03-18T15:22:32.563Z,2.35
2023-03-18T15:25:04.683Z,5.80
2023-03-18T15:27:34.857Z,3.10
2023-03-18T15:30:26.593Z,3.90
2023-03-18T15:33:04.551Z,2.67
2023-03-18T15:35:32.912Z,3.00
2023-03-18T15:38:14.599Z,3.00
2023-03-18T15:40:52.511Z,2.78
2023-03-18T15:43:32.608Z,2.38
2023-03-18T15:46:05.878Z,4.90
2023-03-18T15:48:37.732Z,4.00
2023-03-18T15:51:09.922Z,3.90
2023-03-18T15:53:44.766Z,3.20
2023-03-18T15:56:20.958Z,4.05
2023-03-18T15:58:58.851Z,3.47
2023-03-18T16:01:26.709Z,2.92
2023-03-18T16:03:54.637Z,4.30
2023-03-18T16:06:22.757Z,4.30
2023-03-18T16:08:51.093Z,3.45
2023-03-18T16:11:20.301Z,5.18
2023-03-18T16:13:48.108Z,3.53
2023-03-18T16:16:19.494Z,3.50
2023-03-18T16:18:47.507Z,2.50
2023-03-18T16:21:15.885Z,3.20
2023-03-18T16:23:43.975Z,2.47
2023-03-18T16:26:16.020Z,3.50
2023-03-18T16:28:48.264Z,5.47
2023-03-18T16:31:16.351Z,2.65
2023-03-18T16:33:46.214Z,3.53
2023-03-18T16:36:26.566Z,3.60
2023-03-18T16:38:54.873Z,3.22
2023-03-18T16:41:22.762Z,3.38
2023-03-18T16:43:52.695Z,3.08
2023-03-18T16:46:20.819Z,7.40
2023-03-18T16:48:49.689Z,3.85
2023-03-18T16:51:19.031Z,3.38
2023-03-18T16:53:46.811Z,4.20
2023-03-18T16:56:17.856Z,3.95
2023-03-18T16:58:46.323Z,3.75
2023-03-18T17:01:17.083Z,3.25
2023-03-18T17:03:45.698Z,4.10
2023-03-18T17:06:14.841Z,3.30
2023-03-18T17:08:42.861Z,3.50
2023-03-18T17:11:18.009Z,3.78
2023-03-18T17:13:46.985Z,3.25
2023-03-18T17:16:20.115Z,2.83
2023-03-18T17:18:49.685Z,2.90
2023-03-18T17:21:17.788Z,3.13
2023-03-18T17:23:45.902Z,3.90
2023-03-18T17:26:15.799Z,3.53
2023-03-18T17:28:46.476Z,3.05
2023-03-18T17:31:14.633Z,2.47
2023-03-18T17:33:44.434Z,3.17
2023-03-18T17:36:12.412Z,2.03
2023-03-18T17:38:40.334Z,2.92
2023-03-18T17:41:16.850Z,4.53
2023-03-18T17:43:44.826Z,2.63
2023-03-18T17:46:12.647Z,2.90
2023-03-18T17:48:41.283Z,2.90
2023-03-18T17:51:16.576Z,3.22
2023-03-18T17:53:47.881Z,3.53
2023-03-18T17:56:17.433Z,2.17
2023-03-18T17:58:47.781Z,4.15
2023-03-18T18:01:18.034Z,3.50
2023-03-18T18:03:46.162Z,4.25
2023-03-18T18:06:20.101Z,2.65
2023-03-18T18:08:49.314Z,4.00
2023-03-18T18:11:21.849Z,1.92
2023-03-18T18:16:19.767Z,4.05
2023-03-18T18:18:49.830Z,3.58
2023-03-18T18:21:22.156Z,3.25
2023-03-18T18:23:50.649Z,4.07
2023-03-18T18:26:21.270Z,3.58
2023-03-18T18:28:51.052Z,3.08
2023-03-18T18:31:20.725Z,3.13
2023-03-18T18:33:50.365Z,3.17
2023-03-18T18:36:19.570Z,4.60
2023-03-18T18:38:47.720Z,3.40
2023-03-18T18:41:15.870Z,2.60
2023-03-18T18:43:44.092Z,2.95
2023-03-18T18:46:14.767Z,3.38
2023-03-18T18:48:45.129Z,2.92
2023-03-18T18:51:18.393Z,4.13
2023-03-18T18:53:49.172Z,3.83
2023-03-18T18:56:19.843Z,4.32
2023-03-18T18:58:48.590Z,5.25
2023-03-18T19:01:16.616Z,5.95
2023-03-18T19:03:44.564Z,4.78
2023-03-18T19:06:21.955Z,4.63
2023-03-18T19:08:51.460Z,4.72
2023-03-18T19:11:19.360Z,3.80
2023-03-18T19:13:47.725Z,3.95
2023-03-18T19:16:25.284Z,3.65
2023-03-18T19:18:53.423Z,3.33
2023-03-18T19:21:21.515Z,5.85
2023-03-18T19:23:51.136Z,3.88
2023-03-18T19:26:19.952Z,3.20
2023-03-18T19:28:58.873Z,3.65
2023-03-18T19:31:30.745Z,4.28
2023-03-18T19:34:00.536Z,3.92
2023-03-18T19:36:30.265Z,3.80
2023-03-18T19:39:01.409Z,3.33
2023-03-18T19:41:30.291Z,4.78
2023-03-18T19:44:03.993Z,3.13
2023-03-18T19:46:37.014Z,2.85
2023-03-18T19:49:10.507Z,3.03
2023-03-18T19:51:38.467Z,3.17
2023-03-18T19:54:28.178Z,3.97
2023-03-18T19:56:57.433Z,3.05
2023-03-18T19:59:33.518Z,3.10
2023-03-18T20:02:12.793Z,3.60
2023-03-18T20:04:41.521Z,3.97
2023-03-18T20:07:09.317Z,4.22
2023-03-18T20:09:39.414Z,3.67
2023-03-18T20:12:16.538Z,3.53
2023-03-18T20:14:44.417Z,4.38
2023-03-18T20:17:38.211Z,3.63
2023-03-18T20:20:08.774Z,4.05
2023-03-18T20:22:40.128Z,3.97
2023-03-18T20:25:18.338Z,3.92
2023-03-18T20:27:47.343Z,4.40
2023-03-18T20:30:24.525Z,3.75
2023-03-18T20:32:52.454Z,3.28
2023-03-18T20:35:21.384Z,4.07
2023-03-18T20:37:49.523Z,3.25
2023-03-18T20:40:22.865Z,3.58
2023-03-18T20:42:52.622Z,3.47
2023-03-18T20:45:22.610Z,2.95
2023-03-18T20:47:51.103Z,3.28
2023-03-18T20:50:20.698Z,3.58
2023-03-18T20:52:49.567Z,3.10
2023-03-18T20:55:25.396Z,4.03
2023-03-18T20:57:54.349Z,4.10
2023-03-18T21:00:24.743Z,4.15
2023-03-18T21:02:54.386Z,2.83
2023-03-18T21:05:22.652Z,3.97
2023-03-18T21:07:50.878Z,3.60
2023-03-18T21:10:20.916Z,3.30
2023-03-18T21:12:50.874Z,3.50
2023-03-18T21:15:21.331Z,4.53
2023-03-18T21:17:50.101Z,2.80
2023-03-18T21:20:22.471Z,3.08
2023-03-18T21:22:51.834Z,3.15
2023-03-18T21:25:22.840Z,4.00
2023-03-18T21:27:52.695Z,3.17
2023-03-18T21:30:22.979Z,3.60
2023-03-18T21:32:51.490Z,4.93
2023-03-18T21:35:21.897Z,5.18
2023-03-18T21:37:49.838Z,5.20
2023-03-18T21:40:20.094Z,6.50
2023-03-18T21:42:49.103Z,4.78
2023-03-18T21:45:20.536Z,6.15
2023-03-18T21:47:48.426Z,6.38
2023-03-18T21:50:21.713Z,6.47
2023-03-18T21:52:49.937Z,5.72
2023-03-18T21:55:18.562Z,5.25
2023-03-18T21:57:48.828Z,5.22
2023-03-18T22:00:21.057Z,4.68
2023-03-18T22:02:49.862Z,4.60
2023-03-18T22:05:19.733Z,4.28
2023-03-18T22:07:47.678Z,4.80
2023-03-18T22:10:18.047Z,5.38
2023-03-18T22:12:46.283Z,5.60
2023-03-18T22:15:35.091Z,5.53
2023-03-18T22:18:03.534Z,6.45
2023-03-18T22:20:31.684Z,5.50
2023-03-18T22:22:59.636Z,5.88
2023-03-18T22:25:30.723Z,5.57
2023-03-18T22:27:59.426Z,6.05
2023-03-18T22:30:30.386Z,7.85
2023-03-18T22:32:59.570Z,5.60
2023-03-18T22:35:29.248Z,5.75
2023-03-18T22:37:57.560Z,6.40
2023-03-18T22:40:27.499Z,6.20
2023-03-18T22:42:57.507Z,5.22
2023-03-18T22:45:27.034Z,6.10
2023-03-18T22:47:58.432Z,6.22
2023-03-18T22:50:28.904Z,5.95
2023-03-18T22:53:01.058Z,5.13
2023-03-18T22:55:34.586Z,4.50
2023-03-18T22:58:02.679Z,6.85
2023-03-18T23:00:35.896Z,7.53
2023-03-18T23:03:11.450Z,7.43
2023-03-18T23:05:39.536Z,7.10
2023-03-18T23:08:07.568Z,5.32
2023-03-18T23:10:36.392Z,6.13
2023-03-18T23:13:12.431Z,4.40
2023-03-18T23:15:40.660Z,5.47
2023-03-18T23:18:14.430Z,4.00
2023-03-18T23:20:43.595Z,4.10
2023-03-18T23:23:12.244Z,5.53
2023-03-18T23:25:41.816Z,3.88
2023-03-18T23:28:10.110Z,5.00
2023-03-18T23:30:40.078Z,5.20
2023-03-18T23:33:08.659Z,4.25
2023-03-18T23:35:38.554Z,4.50
2023-03-18T23:38:07.440Z,3.85
2023-03-18T23:40:35.596Z,5.25
2023-03-18T23:43:04.035Z,5.82
2023-03-18T23:45:32.237Z,4.28
2023-03-18T23:48:00.277Z,5.60
2023-03-18T23:50:28.162Z,5.68
2023-03-18T23:52:57.366Z,4.80
2023-03-18T23:55:40.256Z,4.45
